Time;durP1;ratioP1;P1;durP2;ratioP2;P2;SDS_P1;SDS_P2;PMS_P1;PMS_P2;Temp;Humidity;BMP_temperature;BMP_pressure;BME280_temperature;BME280_humidity;BME280_pressure;Samples;Min_cycle;Max_cycle;Signal;HPM_P1;HPM_P2
2022/04/09 00:00:16;;;;;;;;;;;12.20;99.90;;;;;;5037044;28;19924;-70
2022/04/09 00:02:43;;;;;;;;;;;12.20;99.90;;;;;;5038647;28;19940;-69
2022/04/09 00:05:12;;;;;;;;;;;12.10;99.90;;;;;;5038134;28;20008;-70
2022/04/09 00:07:39;;;;;;;;;;;12.10;99.90;;;;;;5037172;28;19933;-70
2022/04/09 00:10:07;;;;;;;;;;;12.10;99.90;;;;;;5036368;28;20414;-69
2022/04/09 00:12:34;;;;;;;;;;;12.20;99.90;;;;;;5040919;28;19967;-69
2022/04/09 00:15:01;;;;;;;;;;;12.40;99.90;;;;;;5036694;28;20387;-70
2022/04/09 00:17:28;;;;;;;;;;;12.40;99.90;;;;;;5038084;28;19932;-70
2022/04/09 00:19:55;;;;;;;;;;;12.40;99.90;;;;;;5036114;28;19936;-70
2022/04/09 00:22:22;;;;;;;;;;;12.40;99.90;;;;;;5038459;28;19936;-70
2022/04/09 00:24:49;;;;;;;;;;;12.40;99.90;;;;;;5035716;28;19932;-70
2022/04/09 00:27:16;;;;;;;;;;;12.40;99.90;;;;;;5035171;28;19929;-70
2022/04/09 00:29:43;;;;;;;;;;;12.40;99.90;;;;;;5038462;28;19987;-69
2022/04/09 00:32:10;;;;;;;;;;;12.40;99.90;;;;;;5036305;28;19955;-70
2022/04/09 00:34:37;;;;;;;;;;;12.50;99.90;;;;;;5035849;28;20879;-70
2022/04/09 00:37:04;;;;;;;;;;;12.50;99.90;;;;;;5037732;28;20396;-70
2022/04/09 00:39:31;;;;;;;;;;;12.50;99.90;;;;;;5019345;28;19982;-70
2022/04/09 00:41:58;;;;;;;;;;;12.50;99.90;;;;;;5037148;28;19925;-70
2022/04/09 00:44:25;;;;;;;;;;;12.50;99.90;;;;;;5037373;28;19939;-70
2022/04/09 00:46:51;;;;;;;;;;;12.50;99.90;;;;;;5040003;28;20012;-70
2022/04/09 00:49:18;;;;;;;;;;;12.50;99.90;;;;;;5038491;28;19932;-70
2022/04/09 00:51:46;;;;;;;;;;;12.40;99.90;;;;;;5019851;28;19929;-70
2022/04/09 00:54:13;;;;;;;;;;;12.40;99.90;;;;;;5040190;28;20027;-70
2022/04/09 00:56:41;;;;;;;;;;;12.30;99.90;;;;;;5036881;28;19950;-70
2022/04/09 00:59:11;;;;;;;;;;;12.30;99.90;;;;;;5038964;28;19971;-71
2022/04/09 01:01:39;;;;;;;;;;;12.20;99.90;;;;;;5050416;28;19975;-70
2022/04/09 01:04:11;;;;;;;;;;;12.30;99.90;;;;;;5033634;28;20762;-69
2022/04/09 01:06:38;;;;;;;;;;;12.30;99.90;;;;;;5037307;28;19926;-70
2022/04/09 01:09:06;;;;;;;;;;;12.30;99.90;;;;;;5036020;28;20008;-69
2022/04/09 01:11:34;;;;;;;;;;;12.30;99.90;;;;;;5035368;28;20498;-70
2022/04/09 01:14:01;;;;;;;;;;;12.30;99.90;;;;;;5035000;28;19964;-70
2022/04/09 01:16:29;;;;;;;;;;;12.30;99.90;;;;;;5020017;28;20399;-70
2022/04/09 01:18:59;;;;;;;;;;;12.30;99.90;;;;;;5050327;28;19994;-70
2022/04/09 01:21:28;;;;;;;;;;;12.30;99.90;;;;;;5033329;28;19968;-70
2022/04/09 01:24:01;;;;;;;;;;;12.20;99.90;;;;;;5047441;28;19982;-70
2022/04/09 01:26:28;;;;;;;;;;;12.20;99.90;;;;;;5035457;28;19929;-70
2022/04/09 01:28:56;;;;;;;;;;;12.10;99.90;;;;;;5038215;28;19936;-69
2022/04/09 01:31:23;;;;;;;;;;;12.20;99.90;;;;;;5034467;28;19925;-69
2022/04/09 01:33:50;;;;;;;;;;;12.00;99.90;;;;;;5024997;28;19960;-69
2022/04/09 01:36:17;;;;;;;;;;;12.10;99.90;;;;;;5037093;28;19975;-69
2022/04/09 01:38:44;;;;;;;;;;;12.20;99.90;;;;;;5036239;28;19933;-70
2022/04/09 01:41:12;;;;;;;;;;;12.20;99.90;;;;;;5018246;28;19932;-70
2022/04/09 01:43:51;;;;;;;;;;;12.00;99.90;;;;;;5035429;28;19929;-69
2022/04/09 01:46:18;;;;;;;;;;;11.80;99.90;;;;;;5035660;28;20041;-69
2022/04/09 01:48:45;;;;;;;;;;;11.70;99.90;;;;;;5040174;28;19956;-69
2022/04/09 01:51:12;;;;;;;;;;;11.80;99.90;;;;;;5036113;28;19929;-69
2022/04/09 01:53:39;;;;;;;;;;;11.80;99.90;;;;;;5033348;28;19933;-69
2022/04/09 01:56:06;;;;;;;;;;;11.90;99.90;;;;;;5018720;28;19975;-70
2022/04/09 01:58:37;;;;;;;;;;;11.90;99.90;;;;;;5037597;28;20024;-69
2022/04/09 02:01:06;;;;;;;;;;;12.00;99.90;;;;;;5035926;28;19979;-69
2022/04/09 02:03:34;;;;;;;;;;;11.90;99.90;;;;;;5050211;28;19929;-69
2022/04/09 02:06:01;;;;;;;;;;;11.90;99.90;;;;;;5040584;28;19929;-69
2022/04/09 02:08:29;;;;;;;;;;;12.00;99.90;;;;;;5036911;28;19933;-69
2022/04/09 02:10:56;;;;;;;;;;;12.00;99.90;;;;;;5036180;28;19936;-69
2022/04/09 02:13:23;;;;;;;;;;;12.00;99.90;;;;;;5036941;28;19956;-70
2022/04/09 02:15:53;;;;;;;;;;;12.00;99.90;;;;;;5031518;28;19937;-69
2022/04/09 02:18:26;;;;;;;;;;;12.00;99.90;;;;;;5040566;28;20303;-70
2022/04/09 02:20:55;;;;;;;;;;;12.10;99.90;;;;;;5034090;28;19931;-70
2022/04/09 02:23:22;;;;;;;;;;;12.10;99.90;;;;;;5035206;28;19932;-70
2022/04/09 02:25:49;;;;;;;;;;;12.00;99.90;;;;;;5036610;28;19952;-70
2022/04/09 02:28:15;;;;;;;;;;;11.90;99.90;;;;;;5034152;28;22207;-69
2022/04/09 02:30:43;;;;;;;;;;;11.90;99.90;;;;;;5034110;28;20299;-70
2022/04/09 02:33:17;;;;;;;;;;;11.90;99.90;;;;;;5036142;28;19936;-69
2022/04/09 02:35:44;;;;;;;;;;;11.80;99.90;;;;;;5051187;28;19956;-69
2022/04/09 02:38:13;;;;;;;;;;;11.80;99.90;;;;;;5018455;28;20380;-68
2022/04/09 02:40:39;;;;;;;;;;;11.90;99.90;;;;;;5035938;28;19939;-69
2022/04/09 02:43:08;;;;;;;;;;;11.80;99.90;;;;;;5037975;28;19925;-70
2022/04/09 02:45:36;;;;;;;;;;;11.80;99.90;;;;;;5034033;28;19928;-70
2022/04/09 02:48:05;;;;;;;;;;;11.70;99.90;;;;;;5038482;28;20060;-70
2022/04/09 02:50:34;;;;;;;;;;;11.70;99.90;;;;;;5018066;28;19973;-70
2022/04/09 02:53:01;;;;;;;;;;;11.70;99.90;;;;;;5035224;28;19936;-70
2022/04/09 02:55:28;;;;;;;;;;;11.70;99.90;;;;;;5035982;28;19940;-70
2022/04/09 02:57:55;;;;;;;;;;;11.60;99.90;;;;;;5033153;28;19940;-70
2022/04/09 03:00:27;;;;;;;;;;;11.60;99.90;;;;;;5037701;28;20360;-70
2022/04/09 03:03:01;;;;;;;;;;;11.70;99.90;;;;;;5033922;28;19933;-70
2022/04/09 03:05:36;;;;;;;;;;;11.70;99.90;;;;;;5036093;28;19939;-71
2022/04/09 03:08:05;;;;;;;;;;;11.80;99.90;;;;;;5039455;28;19932;-70
2022/04/09 03:10:32;;;;;;;;;;;11.70;99.90;;;;;;5038465;28;19928;-70
2022/04/09 03:13:00;;;;;;;;;;;11.70;99.90;;;;;;5040506;28;20324;-70
2022/04/09 03:15:29;;;;;;;;;;;11.70;99.90;;;;;;5037045;28;20372;-70
2022/04/09 03:17:57;;;;;;;;;;;11.70;99.90;;;;;;5040104;28;20767;-69
2022/04/09 03:20:25;;;;;;;;;;;11.70;99.90;;;;;;5043369;28;20430;-69
2022/04/09 03:22:53;;;;;;;;;;;11.60;99.90;;;;;;5036873;28;19932;-69
2022/04/09 03:25:30;;;;;;;;;;;11.50;99.90;;;;;;5037063;28;19933;-69
2022/04/09 03:27:58;;;;;;;;;;;11.60;99.90;;;;;;5029873;28;19928;-70
2022/04/09 03:30:25;;;;;;;;;;;11.60;99.90;;;;;;5041711;28;19979;-69
2022/04/09 03:32:54;;;;;;;;;;;11.60;99.90;;;;;;5052001;28;19970;-69
2022/04/09 03:35:26;;;;;;;;;;;11.60;99.90;;;;;;5020871;28;20323;-69
2022/04/09 03:37:56;;;;;;;;;;;11.60;99.90;;;;;;5038573;28;20785;-69
2022/04/09 03:40:34;;;;;;;;;;;11.70;99.90;;;;;;5038745;28;20055;-69
2022/04/09 03:43:01;;;;;;;;;;;11.70;99.90;;;;;;5041582;28;19964;-69
2022/04/09 03:45:28;;;;;;;;;;;11.60;99.90;;;;;;5018204;28;19964;-69
2022/04/09 03:47:56;;;;;;;;;;;11.70;99.90;;;;;;5024206;28;19933;-69
2022/04/09 03:50:24;;;;;;;;;;;11.60;99.90;;;;;;5054900;28;19979;-69
2022/04/09 03:52:52;;;;;;;;;;;11.70;99.90;;;;;;5038200;28;19969;-69
2022/04/09 03:55:25;;;;;;;;;;;11.70;99.90;;;;;;5026813;28;19935;-69
2022/04/09 03:57:52;;;;;;;;;;;11.70;99.90;;;;;;5037038;28;19925;-69
2022/04/09 04:00:21;;;;;;;;;;;11.70;99.90;;;;;;5036790;28;19939;-69
2022/04/09 04:02:51;;;;;;;;;;;11.80;99.90;;;;;;5041526;28;20011;-69
2022/04/09 04:05:20;;;;;;;;;;;11.80;99.90;;;;;;5024365;28;19929;-70
2022/04/09 04:07:48;;;;;;;;;;;11.80;99.90;;;;;;5036023;28;20342;-69
2022/04/09 04:10:17;;;;;;;;;;;11.70;99.90;;;;;;5036024;28;19933;-69
2022/04/09 04:12:48;;;;;;;;;;;11.70;99.90;;;;;;5037827;28;20351;-69
2022/04/09 04:15:19;;;;;;;;;;;11.60;99.90;;;;;;5034297;28;19933;-69
2022/04/09 04:17:51;;;;;;;;;;;11.60;99.90;;;;;;5036215;28;20352;-70
2022/04/09 04:20:24;;;;;;;;;;;11.60;99.90;;;;;;5046890;28;19929;-69
2022/04/09 04:22:54;;;;;;;;;;;11.70;99.90;;;;;;5040311;28;19924;-69
2022/04/09 04:25:21;;;;;;;;;;;11.70;99.90;;;;;;5034710;28;20062;-69
2022/04/09 04:27:49;;;;;;;;;;;11.60;99.90;;;;;;5036702;28;20024;-69
2022/04/09 04:30:18;;;;;;;;;;;11.60;99.90;;;;;;5036526;28;19974;-69
2022/04/09 04:32:46;;;;;;;;;;;11.60;99.90;;;;;;5048571;28;19975;-69
2022/04/09 04:35:15;;;;;;;;;;;11.60;99.90;;;;;;5036659;28;19936;-69
2022/04/09 04:37:43;;;;;;;;;;;11.60;99.90;;;;;;5037793;28;19929;-69
2022/04/09 04:40:13;;;;;;;;;;;11.60;99.90;;;;;;5036398;28;19933;-69
2022/04/09 04:42:45;;;;;;;;;;;11.50;99.90;;;;;;5022690;28;19933;-69
2022/04/09 04:45:13;;;;;;;;;;;11.40;99.90;;;;;;5052751;28;20016;-69
2022/04/09 04:47:45;;;;;;;;;;;11.40;99.90;;;;;;5035861;28;19929;-69
2022/04/09 04:50:16;;;;;;;;;;;11.40;99.90;;;;;;5050309;28;22106;-69
2022/04/09 04:52:43;;;;;;;;;;;11.40;99.90;;;;;;5035186;28;19929;-69
2022/04/09 04:55:11;;;;;;;;;;;11.30;99.90;;;;;;5038195;28;20040;-69
2022/04/09 04:57:42;;;;;;;;;;;11.30;99.90;;;;;;5038611;28;19933;-69
2022/04/09 05:00:09;;;;;;;;;;;11.30;99.90;;;;;;5031528;28;20053;-69
2022/04/09 05:02:39;;;;;;;;;;;11.30;99.90;;;;;;5004668;28;19937;-69
2022/04/09 05:05:06;;;;;;;;;;;11.30;99.90;;;;;;4976347;28;19933;-69
2022/04/09 05:07:37;;;;;;;;;;;11.20;99.90;;;;;;4978626;28;19940;-69
2022/04/09 05:10:05;;;;;;;;;;;11.20;99.90;;;;;;5005111;28;20073;-68
2022/04/09 05:12:32;;;;;;;;;;;11.20;99.90;;;;;;4991668;28;19939;-69
2022/04/09 05:15:00;;;;;;;;;;;11.20;99.90;;;;;;4972997;28;19932;-69
2022/04/09 05:17:27;;;;;;;;;;;11.20;99.90;;;;;;4990483;28;19976;-69
2022/04/09 05:19:54;;;;;;;;;;;11.20;99.90;;;;;;5006930;28;19932;-69
2022/04/09 05:22:22;;;;;;;;;;;11.30;99.90;;;;;;5000538;28;19933;-70
2022/04/09 05:25:00;;;;;;;;;;;11.20;99.90;;;;;;4998447;28;19933;-70
2022/04/09 05:27:28;;;;;;;;;;;11.20;99.90;;;;;;5005637;28;20030;-69
2022/04/09 05:29:58;;;;;;;;;;;11.20;99.90;;;;;;4991114;28;19933;-70
2022/04/09 05:32:30;;;;;;;;;;;11.10;99.90;;;;;;4993280;28;19933;-69
2022/04/09 05:34:57;;;;;;;;;;;11.10;99.90;;;;;;4993415;28;20067;-69
2022/04/09 05:37:28;;;;;;;;;;;11.10;99.90;;;;;;4991267;28;20035;-69
2022/04/09 05:39:56;;;;;;;;;;;11.10;99.90;;;;;;4975607;28;21811;-69
2022/04/09 05:42:24;;;;;;;;;;;11.00;99.90;;;;;;4991696;28;19933;-69
2022/04/09 05:44:55;;;;;;;;;;;11.10;99.90;;;;;;4998160;28;19933;-69
2022/04/09 05:47:26;;;;;;;;;;;11.10;99.90;;;;;;5006931;28;19940;-70
2022/04/09 05:49:53;;;;;;;;;;;11.00;99.90;;;;;;4987676;28;19933;-70
2022/04/09 05:52:21;;;;;;;;;;;11.00;99.90;;;;;;4990804;28;19937;-72
2022/04/09 05:54:48;;;;;;;;;;;11.00;99.90;;;;;;4982123;28;19940;-71
2022/04/09 05:57:16;;;;;;;;;;;10.90;99.90;;;;;;4991452;28;19940;-70
2022/04/09 05:59:45;;;;;;;;;;;10.90;99.90;;;;;;4993283;28;19932;-70
2022/04/09 06:02:13;;;;;;;;;;;11.00;99.90;;;;;;4966280;28;19964;-71
2022/04/09 06:04:40;;;;;;;;;;;10.90;99.90;;;;;;4973223;28;20063;-70
2022/04/09 06:07:09;;;;;;;;;;;11.00;99.90;;;;;;4988976;28;20035;-70
2022/04/09 06:09:42;;;;;;;;;;;10.90;99.90;;;;;;4988960;28;20102;-70
2022/04/09 06:12:15;;;;;;;;;;;10.90;99.90;;;;;;4991183;28;20991;-71
2022/04/09 06:14:51;;;;;;;;;;;11.00;99.90;;;;;;4997199;28;19940;-69
2022/04/09 06:17:20;;;;;;;;;;;11.00;99.90;;;;;;4988072;28;20411;-69
2022/04/09 06:19:47;;;;;;;;;;;11.00;99.90;;;;;;4975214;28;19975;-69
2022/04/09 06:22:14;;;;;;;;;;;10.90;99.90;;;;;;4989758;28;20707;-68
2022/04/09 06:24:41;;;;;;;;;;;10.90;99.90;;;;;;5006450;28;19940;-70
2022/04/09 06:27:10;;;;;;;;;;;10.80;99.90;;;;;;4989048;28;19933;-69
2022/04/09 06:29:40;;;;;;;;;;;10.90;99.90;;;;;;4988692;28;19933;-69
2022/04/09 06:32:07;;;;;;;;;;;10.90;99.90;;;;;;4989882;28;19933;-70
2022/04/09 06:34:34;;;;;;;;;;;10.90;99.90;;;;;;5001323;28;19985;-70
2022/04/09 06:37:05;;;;;;;;;;;11.00;99.90;;;;;;4989690;28;20075;-70
2022/04/09 06:39:36;;;;;;;;;;;10.90;99.90;;;;;;4990942;28;19940;-68
2022/04/09 06:42:03;;;;;;;;;;;10.90;99.90;;;;;;4996811;28;20532;-70
2022/04/09 06:44:50;;;;;;;;;;;10.90;99.90;;;;;;4990247;28;21959;-70
2022/04/09 06:47:18;;;;;;;;;;;11.00;99.90;;;;;;4991012;28;19939;-70
2022/04/09 06:49:54;;;;;;;;;;;11.00;99.90;;;;;;4990592;28;19932;-69
2022/04/09 06:52:23;;;;;;;;;;;11.10;99.90;;;;;;4979173;28;19932;-70
2022/04/09 06:54:58;;;;;;;;;;;11.20;99.90;;;;;;4990198;28;19987;-70
2022/04/09 06:57:28;;;;;;;;;;;11.20;99.90;;;;;;4990928;28;19934;-69
2022/04/09 06:59:57;;;;;;;;;;;11.20;99.90;;;;;;5006896;28;19933;-70
2022/04/09 07:02:25;;;;;;;;;;;11.20;99.90;;;;;;4990139;28;19941;-71
2022/04/09 07:04:53;;;;;;;;;;;11.20;99.90;;;;;;4990628;28;19933;-70
2022/04/09 07:07:24;;;;;;;;;;;11.20;99.90;;;;;;4991201;28;20406;-70
2022/04/09 07:09:52;;;;;;;;;;;11.30;99.90;;;;;;4990555;28;20122;-69
2022/04/09 07:12:19;;;;;;;;;;;11.20;99.90;;;;;;4991004;28;20002;-71
2022/04/09 07:14:46;;;;;;;;;;;11.20;99.90;;;;;;4990968;28;19933;-70
2022/04/09 07:17:18;;;;;;;;;;;11.30;99.90;;;;;;4997661;28;19933;-70
2022/04/09 07:19:45;;;;;;;;;;;11.30;99.90;;;;;;4991008;28;19991;-70
2022/04/09 07:22:12;;;;;;;;;;;11.20;99.90;;;;;;4989896;28;22322;-70
2022/04/09 07:24:39;;;;;;;;;;;11.30;99.90;;;;;;4989765;28;20067;-70
2022/04/09 07:27:05;;;;;;;;;;;11.20;99.90;;;;;;4989158;28;19933;-70
2022/04/09 07:29:32;;;;;;;;;;;11.20;99.90;;;;;;4992255;28;19990;-70
2022/04/09 07:31:59;;;;;;;;;;;11.20;99.90;;;;;;4990467;28;19933;-70
2022/04/09 07:34:26;;;;;;;;;;;11.30;99.90;;;;;;4989977;28;19933;-69
2022/04/09 07:36:53;;;;;;;;;;;11.30;99.90;;;;;;4989731;28;19941;-70
2022/04/09 07:39:20;;;;;;;;;;;11.30;99.90;;;;;;4990460;28;20067;-73
2022/04/09 07:41:47;;;;;;;;;;;11.20;99.90;;;;;;4992576;28;20121;-69
2022/04/09 07:44:15;;;;;;;;;;;11.00;99.90;;;;;;4990904;28;19933;-72
2022/04/09 07:46:42;;;;;;;;;;;10.90;99.90;;;;;;4987481;28;20075;-71
2022/04/09 07:49:09;;;;;;;;;;;10.60;99.90;;;;;;4989668;28;19933;-70
2022/04/09 07:51:35;;;;;;;;;;;10.40;99.90;;;;;;5003207;28;20082;-70
2022/04/09 07:54:02;;;;;;;;;;;10.30;99.90;;;;;;4994286;28;20128;-73
2022/04/09 07:56:29;;;;;;;;;;;10.20;99.90;;;;;;4994251;28;19933;-70
2022/04/09 07:58:56;;;;;;;;;;;10.30;99.90;;;;;;5003881;28;20065;-70
2022/04/09 08:01:23;;;;;;;;;;;10.40;99.90;;;;;;4989231;28;19972;-70
2022/04/09 08:03:50;;;;;;;;;;;10.30;99.90;;;;;;4996732;28;20899;-70
2022/04/09 08:06:17;;;;;;;;;;;10.50;99.90;;;;;;4987990;28;20071;-70
2022/04/09 08:08:44;;;;;;;;;;;10.60;99.90;;;;;;4993344;28;19937;-70
2022/04/09 08:11:11;;;;;;;;;;;10.70;99.90;;;;;;4991784;28;19936;-70
2022/04/09 08:13:39;;;;;;;;;;;10.90;99.90;;;;;;4992807;28;20596;-70
2022/04/09 08:16:06;;;;;;;;;;;10.90;99.90;;;;;;4999826;28;19933;-70
2022/04/09 08:18:32;;;;;;;;;;;11.00;99.90;;;;;;4994950;28;19940;-70
2022/04/09 08:21:02;;;;;;;;;;;11.10;99.90;;;;;;4992868;28;19940;-70
2022/04/09 08:23:29;;;;;;;;;;;11.10;99.90;;;;;;4993659;28;19984;-70
2022/04/09 08:25:56;;;;;;;;;;;11.20;99.90;;;;;;4976621;28;20039;-70
2022/04/09 08:28:25;;;;;;;;;;;11.30;99.90;;;;;;4994758;28;20089;-70
2022/04/09 08:30:52;;;;;;;;;;;11.30;99.90;;;;;;4993181;28;20056;-70
2022/04/09 08:33:19;;;;;;;;;;;11.30;99.90;;;;;;4992762;28;19932;-70
2022/04/09 08:35:46;;;;;;;;;;;11.30;99.90;;;;;;4993654;28;22590;-70
2022/04/09 08:38:14;;;;;;;;;;;11.30;99.90;;;;;;4990771;28;20648;-70
2022/04/09 08:40:42;;;;;;;;;;;11.20;99.90;;;;;;4990803;28;22241;-70
2022/04/09 08:43:09;;;;;;;;;;;11.30;99.90;;;;;;4977746;28;19933;-69
2022/04/09 08:45:39;;;;;;;;;;;11.40;99.90;;;;;;4992262;28;19975;-70
2022/04/09 08:48:07;;;;;;;;;;;11.40;99.90;;;;;;5004867;28;19933;-70
2022/04/09 08:50:37;;;;;;;;;;;11.40;99.90;;;;;;4991734;28;19933;-70
2022/04/09 08:53:08;;;;;;;;;;;11.40;99.90;;;;;;4991497;28;19933;-70
2022/04/09 08:55:40;;;;;;;;;;;11.40;99.90;;;;;;4981906;28;19932;-70
2022/04/09 08:58:07;;;;;;;;;;;11.40;99.90;;;;;;4992448;28;19933;-70
2022/04/09 09:00:34;;;;;;;;;;;11.40;99.90;;;;;;4989039;28;19933;-70
2022/04/09 09:03:02;;;;;;;;;;;11.40;99.90;;;;;;4992283;28;19959;-70
2022/04/09 09:05:39;;;;;;;;;;;11.40;99.90;;;;;;4993250;28;19932;-70
2022/04/09 09:08:08;;;;;;;;;;;11.30;99.90;;;;;;4997795;28;22308;-70
2022/04/09 09:10:36;;;;;;;;;;;11.30;99.90;;;;;;4979326;28;19940;-70
2022/04/09 09:13:05;;;;;;;;;;;11.40;99.90;;;;;;4992974;28;20075;-70
2022/04/09 09:15:51;;;;;;;;;;;11.40;99.90;;;;;;4989975;28;19933;-70
2022/04/09 09:18:20;;;;;;;;;;;11.40;99.90;;;;;;4986563;28;22369;-70
2022/04/09 09:20:49;;;;;;;;;;;11.40;99.90;;;;;;4988884;28;19939;-71
2022/04/09 09:23:20;;;;;;;;;;;11.50;99.90;;;;;;4973563;28;19944;-70
2022/04/09 09:25:48;;;;;;;;;;;11.50;99.90;;;;;;5005095;28;19933;-70
2022/04/09 09:28:22;;;;;;;;;;;11.50;99.90;;;;;;4980518;28;19933;-70
2022/04/09 09:30:49;;;;;;;;;;;11.50;99.90;;;;;;4985143;28;19942;-70
2022/04/09 09:33:16;;;;;;;;;;;11.30;99.90;;;;;;4986708;28;19940;-71
2022/04/09 09:36:03;;;;;;;;;;;11.30;99.90;;;;;;4983890;28;22326;-70
2022/04/09 09:38:33;;;;;;;;;;;11.30;99.90;;;;;;4983831;28;19937;-71
2022/04/09 09:41:03;;;;;;;;;;;11.50;99.90;;;;;;4978394;28;19940;-71
2022/04/09 09:43:30;;;;;;;;;;;11.40;99.90;;;;;;4987808;28;21908;-71
2022/04/09 09:45:57;;;;;;;;;;;11.30;99.90;;;;;;4984522;28;22400;-70
2022/04/09 09:48:35;;;;;;;;;;;11.30;99.90;;;;;;4976657;28;19933;-69
2022/04/09 09:51:02;;;;;;;;;;;11.20;99.90;;;;;;4988252;28;19972;-70
2022/04/09 09:53:31;;;;;;;;;;;11.30;99.90;;;;;;4980588;28;19932;-71
2022/04/09 09:55:59;;;;;;;;;;;11.30;99.90;;;;;;4992283;28;19933;-71
2022/04/09 09:58:29;;;;;;;;;;;11.30;99.90;;;;;;4998122;28;19933;-70
2022/04/09 10:01:15;;;;;;;;;;;11.20;99.90;;;;;;4995552;28;20467;-72
2022/04/09 10:03:42;;;;;;;;;;;10.90;99.90;;;;;;4993452;28;19933;-70
2022/04/09 10:06:09;;;;;;;;;;;10.70;99.90;;;;;;4991899;28;21268;-70
2022/04/09 10:08:36;;;;;;;;;;;10.60;99.90;;;;;;4990114;28;19945;-70
2022/04/09 10:11:03;;;;;;;;;;;10.50;99.90;;;;;;4979357;28;22349;-72
2022/04/09 10:13:32;;;;;;;;;;;10.40;99.90;;;;;;5010151;28;19933;-71
2022/04/09 10:15:59;;;;;;;;;;;10.30;99.90;;;;;;4993225;28;20738;-72
2022/04/09 10:18:26;;;;;;;;;;;10.10;99.90;;;;;;4986945;28;19933;-74
2022/04/09 10:20:54;;;;;;;;;;;10.00;99.90;;;;;;5001791;28;20480;-73
2022/04/09 10:23:22;;;;;;;;;;;9.80;99.90;;;;;;4992347;28;20665;-74
2022/04/09 10:25:51;;;;;;;;;;;9.70;99.90;;;;;;4973947;28;19940;-71
2022/04/09 10:28:38;;;;;;;;;;;9.60;99.90;;;;;;4972418;28;20007;-71
2022/04/09 10:31:24;;;;;;;;;;;9.60;99.90;;;;;;4989998;28;19939;-71
2022/04/09 10:33:56;;;;;;;;;;;9.60;99.90;;;;;;4992014;28;19940;-71
2022/04/09 10:36:42;;;;;;;;;;;9.60;99.90;;;;;;4990085;28;19939;-70
2022/04/09 10:39:19;;;;;;;;;;;9.60;99.90;;;;;;4990038;28;19933;-71
2022/04/09 10:41:46;;;;;;;;;;;9.60;99.90;;;;;;4989243;28;22242;-71
2022/04/09 10:44:33;;;;;;;;;;;9.50;99.90;;;;;;4989948;28;19933;-73
2022/04/09 10:47:03;;;;;;;;;;;9.50;99.90;;;;;;4987225;28;19933;-70
2022/04/09 10:49:31;;;;;;;;;;;9.50;99.90;;;;;;4987541;28;19933;-71
2022/04/09 10:52:05;;;;;;;;;;;9.50;99.90;;;;;;5005907;28;19933;-70
2022/04/09 10:54:33;;;;;;;;;;;9.60;99.90;;;;;;4989731;28;19933;-71
2022/04/09 10:57:10;;;;;;;;;;;9.70;99.90;;;;;;4983941;28;19933;-72
2022/04/09 10:59:38;;;;;;;;;;;9.60;99.90;;;;;;4990694;28;19933;-73
2022/04/09 11:02:05;;;;;;;;;;;9.50;99.90;;;;;;4986255;28;19933;-75
2022/04/09 11:04:36;;;;;;;;;;;9.40;99.90;;;;;;4981628;28;19967;-74
2022/04/09 11:07:14;;;;;;;;;;;9.30;99.90;;;;;;4986350;28;19933;-73
2022/04/09 11:10:00;;;;;;;;;;;9.20;99.90;;;;;;4988559;28;19999;-71
2022/04/09 11:12:31;;;;;;;;;;;9.10;99.90;;;;;;4988495;28;20082;-71
2022/04/09 11:14:59;;;;;;;;;;;9.20;99.90;;;;;;4999753;28;21365;-71
2022/04/09 11:17:33;;;;;;;;;;;9.20;99.90;;;;;;4993802;28;22362;-71
2022/04/09 11:20:01;;;;;;;;;;;9.30;99.60;;;;;;5001042;28;19933;-74
2022/04/09 11:22:32;;;;;;;;;;;9.20;98.20;;;;;;4992279;28;19975;-73
2022/04/09 11:24:59;;;;;;;;;;;9.10;97.70;;;;;;4994160;28;19972;-70
2022/04/09 11:27:29;;;;;;;;;;;8.90;96.90;;;;;;4994432;28;19933;-70
2022/04/09 11:29:57;;;;;;;;;;;8.90;95.90;;;;;;4997577;28;19939;-70
2022/04/09 11:32:24;;;;;;;;;;;9.00;96.20;;;;;;4997278;28;19982;-69
2022/04/09 11:35:00;;;;;;;;;;;8.90;94.70;;;;;;4995269;28;19933;-72
2022/04/09 11:37:30;;;;;;;;;;;9.00;96.10;;;;;;5008277;28;19941;-70
2022/04/09 11:39:58;;;;;;;;;;;9.00;95.50;;;;;;4999425;28;19933;-71
2022/04/09 11:42:25;;;;;;;;;;;9.00;95.50;;;;;;4995207;28;19932;-70
2022/04/09 11:44:52;;;;;;;;;;;9.00;94.70;;;;;;4997295;28;20009;-71
2022/04/09 11:47:23;;;;;;;;;;;8.90;94.00;;;;;;4996684;28;20071;-69
2022/04/09 11:49:52;;;;;;;;;;;9.00;94.90;;;;;;5009099;28;22334;-72
2022/04/09 11:52:26;;;;;;;;;;;8.90;93.80;;;;;;4995706;28;19933;-70
2022/04/09 11:54:54;;;;;;;;;;;9.00;94.90;;;;;;4991855;28;19940;-72
2022/04/09 11:57:22;;;;;;;;;;;8.90;94.30;;;;;;4993717;28;20918;-71
2022/04/09 11:59:52;;;;;;;;;;;9.00;94.30;;;;;;4994746;28;20323;-71
2022/04/09 12:02:21;;;;;;;;;;;8.90;93.10;;;;;;4998907;28;19936;-70
2022/04/09 12:04:48;;;;;;;;;;;9.00;94.00;;;;;;4995404;28;20027;-70
2022/04/09 12:07:16;;;;;;;;;;;9.10;93.60;;;;;;5014051;28;20626;-71
2022/04/09 12:09:43;;;;;;;;;;;9.20;93.20;;;;;;4993763;28;20742;-70
2022/04/09 12:12:10;;;;;;;;;;;9.30;92.50;;;;;;4994233;28;19937;-71
2022/04/09 12:14:39;;;;;;;;;;;9.40;91.30;;;;;;4997552;28;20061;-70
2022/04/09 12:17:11;;;;;;;;;;;9.40;91.60;;;;;;4994285;28;20611;-71
2022/04/09 12:19:40;;;;;;;;;;;9.60;91.80;;;;;;4998043;28;19933;-70
2022/04/09 12:22:14;;;;;;;;;;;9.50;90.30;;;;;;4993124;28;19937;-72
2022/04/09 12:25:00;;;;;;;;;;;9.40;88.60;;;;;;4990199;28;20415;-70
2022/04/09 12:27:43;;;;;;;;;;;9.50;87.60;;;;;;4993844;28;19933;-73
2022/04/09 12:30:11;;;;;;;;;;;9.60;87.90;;;;;;5002037;28;19959;-72
2022/04/09 12:32:41;;;;;;;;;;;9.70;86.70;;;;;;4994695;28;19939;-72
2022/04/09 12:35:09;;;;;;;;;;;9.40;84.50;;;;;;4993827;28;19933;-72
2022/04/09 12:37:47;;;;;;;;;;;9.40;84.90;;;;;;4994896;28;20027;-71
2022/04/09 12:40:14;;;;;;;;;;;9.30;82.80;;;;;;4996391;28;22390;-70
2022/04/09 12:42:41;;;;;;;;;;;9.40;83.30;;;;;;4988612;28;19933;-71
2022/04/09 12:45:10;;;;;;;;;;;9.50;82.20;;;;;;4996327;28;20017;-71
2022/04/09 12:47:37;;;;;;;;;;;9.50;82.50;;;;;;4994683;28;19933;-72
2022/04/09 12:50:04;;;;;;;;;;;9.60;82.10;;;;;;4994673;28;19933;-71
2022/04/09 12:52:31;;;;;;;;;;;9.50;81.00;;;;;;4994853;28;19932;-72
2022/04/09 12:54:58;;;;;;;;;;;9.50;79.50;;;;;;4998408;28;20573;-72
2022/04/09 12:57:25;;;;;;;;;;;9.60;81.70;;;;;;4991567;28;20027;-72
2022/04/09 12:59:52;;;;;;;;;;;9.60;80.20;;;;;;4995954;28;19936;-72
2022/04/09 13:02:19;;;;;;;;;;;9.30;79.60;;;;;;4993783;28;20090;-71
2022/04/09 13:04:46;;;;;;;;;;;9.30;79.70;;;;;;4991592;28;19940;-72
2022/04/09 13:07:13;;;;;;;;;;;9.30;80.10;;;;;;4993021;28;21050;-72
2022/04/09 13:09:40;;;;;;;;;;;9.50;80.80;;;;;;4996010;28;22291;-72
2022/04/09 13:12:08;;;;;;;;;;;9.50;80.30;;;;;;4994564;28;19933;-72
2022/04/09 13:14:35;;;;;;;;;;;9.50;78.80;;;;;;4991688;28;19979;-72
2022/04/09 13:17:02;;;;;;;;;;;9.50;80.10;;;;;;4993512;28;19933;-71
2022/04/09 13:19:30;;;;;;;;;;;9.60;77.50;;;;;;4994292;28;20082;-71
2022/04/09 13:21:57;;;;;;;;;;;9.60;78.90;;;;;;4993090;28;19933;-71
2022/04/09 13:24:23;;;;;;;;;;;9.50;77.80;;;;;;4979139;28;20165;-71
2022/04/09 13:26:50;;;;;;;;;;;9.40;78.50;;;;;;4994050;28;20039;-72
2022/04/09 13:29:17;;;;;;;;;;;9.40;77.70;;;;;;4984238;28;19932;-71
2022/04/09 13:31:46;;;;;;;;;;;9.30;79.60;;;;;;4992335;28;19976;-72
2022/04/09 13:34:17;;;;;;;;;;;9.40;79.00;;;;;;4991082;28;21103;-70
2022/04/09 13:36:44;;;;;;;;;;;9.30;77.50;;;;;;5008071;28;20591;-72
2022/04/09 13:39:11;;;;;;;;;;;9.30;76.90;;;;;;4974709;28;20640;-71
2022/04/09 13:41:57;;;;;;;;;;;9.20;77.10;;;;;;4988742;28;19939;-72
2022/04/09 13:44:24;;;;;;;;;;;9.20;77.80;;;;;;4990486;28;19972;-71
2022/04/09 13:46:51;;;;;;;;;;;9.30;78.70;;;;;;4989879;28;19932;-71
2022/04/09 13:49:18;;;;;;;;;;;9.40;78.10;;;;;;5006548;28;19933;-71
2022/04/09 13:51:45;;;;;;;;;;;9.30;79.30;;;;;;4990520;28;19937;-71
2022/04/09 13:54:12;;;;;;;;;;;9.30;80.50;;;;;;4993597;28;22485;-71
2022/04/09 13:56:39;;;;;;;;;;;9.30;79.30;;;;;;4989843;28;19933;-71
2022/04/09 13:59:06;;;;;;;;;;;9.30;78.30;;;;;;4990293;28;20414;-71
2022/04/09 14:01:33;;;;;;;;;;;9.20;78.00;;;;;;4997091;28;22281;-72
2022/04/09 14:04:00;;;;;;;;;;;9.40;79.30;;;;;;4991199;28;19979;-70
2022/04/09 14:06:27;;;;;;;;;;;9.50;79.20;;;;;;4991077;28;19998;-70
2022/04/09 14:08:54;;;;;;;;;;;9.30;77.30;;;;;;4991969;28;19933;-73
2022/04/09 14:11:22;;;;;;;;;;;9.30;77.70;;;;;;5005020;28;22384;-73
2022/04/09 14:13:48;;;;;;;;;;;9.40;78.40;;;;;;4997959;28;20615;-71
2022/04/09 14:16:15;;;;;;;;;;;9.40;78.10;;;;;;4980528;28;19933;-72
2022/04/09 14:18:45;;;;;;;;;;;9.40;75.50;;;;;;5006241;28;20438;-71
2022/04/09 14:21:12;;;;;;;;;;;9.50;77.70;;;;;;4988753;28;19940;-71
2022/04/09 14:23:39;;;;;;;;;;;9.60;78.90;;;;;;4993680;28;19933;-72
2022/04/09 14:26:06;;;;;;;;;;;9.60;77.50;;;;;;4990840;28;19933;-71
2022/04/09 14:28:33;;;;;;;;;;;9.50;76.70;;;;;;4989828;28;19939;-71
2022/04/09 14:31:00;;;;;;;;;;;9.50;76.90;;;;;;4987721;28;20710;-71